Time;durP1;ratioP1;P1;durP2;ratioP2;P2;SDS_P1;SDS_P2;PMS_P1;PMS_P2;Temp;Humidity;BMP_temperature;BMP_pressure;BME280_temperature;BME280_humidity;BME280_pressure;Samples;Min_cycle;Max_cycle;Signal;HPM_P1;HPM_P2
2022/11/12 00:01:16;;;;;;;10.00;6.03;;;;;;;12.61;77.70;102474.62;1762535;80;21423;-87
2022/11/12 00:03:42;;;;;;;10.82;6.28;;;;;;;12.61;77.68;102472.91;1755927;80;21896;-87
2022/11/12 00:06:09;;;;;;;8.33;5.53;;;;;;;12.63;77.74;102476.52;1748585;80;21924;-87
2022/11/12 00:08:36;;;;;;;11.43;6.15;;;;;;;12.64;77.68;102473.02;1757017;80;21045;-87
2022/11/12 00:11:04;;;;;;;10.43;5.95;;;;;;;12.67;77.64;102476.63;1728994;80;34325;-87
2022/11/12 00:13:30;;;;;;;8.45;5.87;;;;;;;12.65;77.56;102477.91;1754763;80;21610;-87
2022/11/12 00:15:57;;;;;;;8.48;6.45;;;;;;;12.64;77.58;102474.77;1755630;80;21593;-87
2022/11/12 00:18:24;;;;;;;9.05;5.78;;;;;;;12.64;77.63;102474.77;1755609;80;22187;-87
2022/11/12 00:20:50;;;;;;;7.50;5.33;;;;;;;12.63;77.59;102475.59;1751528;80;21030;-87
2022/11/12 00:23:17;;;;;;;9.08;6.15;;;;;;;12.64;77.64;102469.48;1752449;80;21029;-87
2022/11/12 00:25:44;;;;;;;10.23;5.53;;;;;;;12.62;77.56;102479.08;1763215;80;21005;-86
2022/11/12 00:28:10;;;;;;;8.30;6.10;;;;;;;12.61;77.63;102478.19;1753955;80;20974;-87
2022/11/12 00:30:38;;;;;;;7.70;6.12;;;;;;;12.60;77.59;102484.72;1758597;80;21686;-88
2022/11/12 00:33:05;;;;;;;14.53;6.53;;;;;;;12.58;77.51;102489.03;1759660;80;21032;-87
2022/11/12 00:35:32;;;;;;;11.55;6.35;;;;;;;12.55;77.59;102486.24;1758230;80;21025;-87
2022/11/12 00:37:59;;;;;;;8.38;6.20;;;;;;;12.52;77.59;102492.30;1761406;80;20982;-87
2022/11/12 00:40:26;;;;;;;10.15;5.83;;;;;;;12.54;77.69;102487.09;1756670;80;21840;-87
2022/11/12 00:42:52;;;;;;;11.90;5.92;;;;;;;12.56;77.73;102482.78;1762011;80;21738;-87
2022/11/12 00:45:19;;;;;;;10.72;6.12;;;;;;;12.57;77.74;102488.53;1754621;80;21037;-87
2022/11/12 00:47:46;;;;;;;8.60;6.58;;;;;;;12.59;77.72;102496.11;1753245;80;20958;-87
2022/11/12 00:50:14;;;;;;;10.38;6.03;;;;;;;12.57;77.61;102489.42;1756233;80;21069;-87
2022/11/12 00:52:41;;;;;;;9.00;5.90;;;;;;;12.56;77.67;102491.59;1751558;80;21001;-87
2022/11/12 00:55:08;;;;;;;8.48;6.22;;;;;;;12.57;77.71;102494.70;1754913;80;21454;-87
2022/11/12 00:57:34;;;;;;;12.25;7.08;;;;;;;12.60;77.71;102492.64;1754909;80;20961;-87
2022/11/12 01:00:03;;;;;;;9.28;6.15;;;;;;;12.60;77.65;102497.50;1761115;80;22245;-87
2022/11/12 01:02:30;;;;;;;13.70;8.10;;;;;;;12.61;77.66;102491.79;1752839;80;20973;-87
2022/11/12 01:04:56;;;;;;;11.20;6.60;;;;;;;12.60;77.58;102486.04;1761114;80;21002;-87
2022/11/12 01:07:23;;;;;;;9.03;6.97;;;;;;;12.59;77.54;102493.46;1753421;80;21739;-87
2022/11/12 01:09:50;;;;;;;10.65;7.05;;;;;;;12.59;77.60;102493.46;1764130;80;21021;-87
2022/11/12 01:12:16;;;;;;;10.00;6.03;;;;;;;12.59;77.58;102485.54;1748475;80;21631;-87
2022/11/12 01:14:43;;;;;;;9.98;6.67;;;;;;;12.58;77.59;102482.43;1758257;80;21048;-87
2022/11/12 01:17:10;;;;;;;9.15;6.75;;;;;;;12.56;77.55;102490.28;1733998;80;21025;-87
2022/11/12 01:19:37;;;;;;;8.68;5.95;;;;;;;12.58;77.57;102484.64;1725105;82;22349;-88
2022/11/12 01:22:03;;;;;;;9.28;5.80;;;;;;;12.57;77.54;102493.39;1728308;82;20983;-88
2022/11/12 01:24:30;;;;;;;11.73;6.35;;;;;;;12.57;77.56;102489.42;1726141;81;21019;-87
2022/11/12 01:26:57;;;;;;;7.58;5.58;;;;;;;12.60;77.58;102498.82;1725305;82;21022;-88
2022/11/12 01:29:23;;;;;;;8.45;5.67;;;;;;;12.60;77.49;102497.50;1724608;81;21015;-88
2022/11/12 01:31:50;;;;;;;9.35;5.75;;;;;;;12.59;77.43;102508.92;1723504;81;22549;-87
2022/11/12 01:34:17;;;;;;;9.78;5.95;;;;;;;12.59;77.43;102510.24;1721655;81;21027;-88
2022/11/12 01:36:43;;;;;;;11.73;6.75;;;;;;;12.58;77.43;102508.42;1722994;81;21021;-88
2022/11/12 01:39:10;;;;;;;9.85;6.33;;;;;;;12.58;77.34;102512.81;1718990;81;21014;-88
2022/11/12 01:41:38;;;;;;;9.43;6.15;;;;;;;12.57;77.33;102506.59;1721386;82;21046;-88
2022/11/12 01:44:23;;;;;;;11.08;6.72;;;;;;;12.53;77.28;102504.66;1723530;82;21730;-88
2022/11/12 01:47:06;;;;;;;10.05;5.92;;;;;;;12.55;77.33;102511.34;1716382;81;21531;-88
2022/11/12 01:49:52;;;;;;;11.05;6.22;;;;;;;12.57;77.37;102514.52;1725077;82;20883;-87
2022/11/12 01:52:33;;;;;;;10.28;6.33;;;;;;;12.58;77.33;102518.09;1721547;81;20990;-87
2022/11/12 01:55:10;;;;;;;9.03;5.85;;;;;;;12.57;77.29;102518.48;1724641;81;21025;-87
2022/11/12 01:57:40;;;;;;;13.32;6.20;;;;;;;12.55;77.23;102520.16;1722209;82;21725;-88
2022/11/12 02:00:10;;;;;;;13.50;6.35;;;;;;;12.54;77.29;102517.47;1723067;81;21026;-87
2022/11/12 02:02:36;;;;;;;7.60;5.87;;;;;;;12.55;77.29;102520.16;1717710;82;20975;-87
2022/11/12 02:05:06;;;;;;;11.12;5.62;;;;;;;12.55;77.28;102520.16;1698183;82;21085;-87
2022/11/12 02:07:33;;;;;;;14.28;6.55;;;;;;;12.58;77.23;102523.38;1721719;81;21022;-87
2022/11/12 02:10:00;;;;;;;10.28;5.90;;;;;;;12.59;77.16;102521.20;1720877;82;21717;-87
2022/11/12 02:15:12;;;;;;;9.05;6.58;;;;;;;12.61;77.15;102519.14;1720660;82;20975;-87
2022/11/12 02:17:38;;;;;;;9.73;5.85;;;;;;;12.60;77.06;102518.63;1722956;82;20978;-88
2022/11/12 02:20:09;;;;;;;10.95;6.40;;;;;;;12.58;77.07;102515.02;1700370;82;21045;-87
2022/11/12 02:22:36;;;;;;;13.60;6.87;;;;;;;12.58;77.11;102512.38;1720443;81;21671;-87
2022/11/12 02:25:03;;;;;;;10.28;6.33;;;;;;;12.58;77.04;102521.63;1721262;82;21074;-87
2022/11/12 02:27:29;;;;;;;13.85;6.35;;;;;;;12.57;77.09;102519.80;1725484;82;21047;-87
2022/11/12 02:29:56;;;;;;;8.08;5.30;;;;;;;12.58;77.08;102521.63;1720901;82;21026;-87
2022/11/12 02:32:23;;;;;;;8.35;5.47;;;;;;;12.60;77.03;102529.20;1725158;82;21565;-88
2022/11/12 02:34:49;;;;;;;10.10;6.28;;;;;;;12.59;77.04;102526.48;1723756;81;21712;-87
2022/11/12 02:37:16;;;;;;;8.70;5.90;;;;;;;12.59;77.05;102523.45;1723671;82;21005;-87
2022/11/12 02:39:43;;;;;;;9.43;5.70;;;;;;;12.59;77.03;102525.16;1721420;82;21018;-88
2022/11/12 02:42:09;;;;;;;7.85;5.20;;;;;;;12.60;77.04;102533.59;1724053;82;21014;-87
2022/11/12 02:44:36;;;;;;;9.83;5.83;;;;;;;12.63;77.07;102532.39;1720618;82;21089;-88
2022/11/12 02:47:03;;;;;;;9.63;5.70;;;;;;;12.63;77.04;102528.42;1723396;82;21784;-88
2022/11/12 02:49:30;;;;;;;11.05;5.83;;;;;;;12.63;76.98;102537.28;1724035;81;21001;-88
2022/11/12 02:51:56;;;;;;;8.00;5.30;;;;;;;12.64;77.02;102540.81;1724696;82;21021;-88
2022/11/12 02:54:23;;;;;;;8.83;6.10;;;;;;;12.66;76.99;102535.61;1722815;82;20963;-87
2022/11/12 02:56:50;;;;;;;9.08;5.22;;;;;;;12.66;77.00;102540.89;1722063;82;21082;-87
2022/11/12 02:59:17;;;;;;;10.23;6.00;;;;;;;12.68;77.00;102541.86;1723473;82;23035;-88
2022/11/12 03:01:43;;;;;;;8.93;5.80;;;;;;;12.66;77.00;102537.82;1719564;81;21012;-87
2022/11/12 03:04:10;;;;;;;7.65;4.65;;;;;;;12.66;77.00;102537.82;1725650;81;21003;-87
2022/11/12 03:06:37;;;;;;;9.50;5.17;;;;;;;12.68;76.96;102537.90;1724196;82;21740;-88
2022/11/12 03:09:03;;;;;;;10.03;5.17;;;;;;;12.67;76.98;102538.33;1723990;81;20979;-87
2022/11/12 03:11:30;;;;;;;6.50;4.17;;;;;;;12.68;76.95;102529.55;1721360;82;21679;-88
2022/11/12 03:13:57;;;;;;;8.55;4.72;;;;;;;12.69;76.98;102525.16;1723319;82;20994;-87
2022/11/12 03:16:24;;;;;;;10.35;5.08;;;;;;;12.66;76.91;102524.61;1717692;82;21006;-87
2022/11/12 03:18:50;;;;;;;9.48;4.78;;;;;;;12.69;76.94;102527.80;1724099;82;20990;-88
2022/11/12 03:21:17;;;;;;;9.60;4.17;;;;;;;12.70;76.93;102540.19;1725113;82;21030;-88
2022/11/12 03:23:43;;;;;;;8.15;4.80;;;;;;;12.72;76.94;102535.45;1723186;82;21732;-87
2022/11/12 03:26:10;;;;;;;9.38;5.00;;;;;;;12.71;76.91;102541.58;1725439;82;20998;-88
2022/11/12 03:28:37;;;;;;;9.80;4.80;;;;;;;12.72;76.94;102536.77;1719860;82;21077;-87
2022/11/12 03:31:04;;;;;;;8.20;4.60;;;;;;;12.73;76.85;102541.23;1721916;82;21579;-88
2022/11/12 03:33:30;;;;;;;12.40;5.28;;;;;;;12.71;76.87;102528.80;1720603;82;20974;-87
2022/11/12 03:35:57;;;;;;;6.30;4.30;;;;;;;12.72;76.90;102534.55;1725483;81;21709;-87
2022/11/12 03:38:24;;;;;;;11.25;4.92;;;;;;;12.73;76.83;102526.70;1722844;82;21038;-87
2022/11/12 03:40:50;;;;;;;9.23;4.42;;;;;;;12.72;76.78;102528.84;1721751;82;20910;-87
2022/11/12 03:43:17;;;;;;;7.85;4.67;;;;;;;12.72;76.79;102530.16;1721824;82;21535;-87
2022/11/12 03:45:44;;;;;;;8.68;4.40;;;;;;;12.72;76.72;102531.48;1724377;82;21071;-87
2022/11/12 03:48:10;;;;;;;9.73;4.25;;;;;;;12.72;76.71;102538.52;1721868;82;21724;-88
2022/11/12 03:50:37;;;;;;;11.00;4.35;;;;;;;12.73;76.68;102539.02;1722310;82;21019;-88
2022/11/12 03:53:04;;;;;;;9.60;4.33;;;;;;;12.73;76.67;102540.34;1716010;82;21069;-88
2022/11/12 03:55:31;;;;;;;10.15;4.62;;;;;;;12.74;76.70;102534.20;1722057;82;20986;-87
2022/11/12 03:57:58;;;;;;;9.38;4.30;;;;;;;12.75;76.69;102530.31;1726095;82;21033;-87
2022/11/12 04:00:26;;;;;;;12.30;5.75;;;;;;;12.77;76.66;102532.59;1720248;82;23055;-87
2022/11/12 04:02:52;;;;;;;9.98;4.58;;;;;;;12.77;76.69;102530.38;1722328;82;20994;-87
2022/11/12 04:11:03;;;;;;;9.68;4.83;;;;;;;12.71;76.43;102526.16;1721150;82;21073;-87
2022/11/12 04:13:30;;;;;;;11.65;4.60;;;;;;;12.71;76.44;102524.84;1723536;82;21708;-87
2022/11/12 04:21:54;;;;;;;12.10;4.53;;;;;;;12.72;76.50;102523.98;1725993;82;21022;-87
2022/11/12 04:27:23;;;;;;;10.40;4.67;;;;;;;12.76;76.46;102529.88;1725038;82;21717;-87
2022/11/12 04:32:42;;;;;;;11.68;4.87;;;;;;;12.71;76.42;102516.91;1721880;82;21571;-87
2022/11/12 04:35:08;;;;;;;13.48;4.85;;;;;;;12.70;76.42;102512.44;1724225;81;21054;-86
2022/11/12 04:37:44;;;;;;;12.10;5.00;;;;;;;12.70;76.46;102511.13;1723673;82;21443;-87
2022/11/12 04:45:56;;;;;;;11.75;5.37;;;;;;;12.69;76.49;102516.83;1724814;81;20950;-87
2022/11/12 04:48:23;;;;;;;7.40;4.55;;;;;;;12.73;76.51;102523.16;1719549;82;21073;-87
2022/11/12 04:50:53;;;;;;;9.43;4.20;;;;;;;12.73;76.44;102525.37;1722561;82;21067;-88
2022/11/12 04:53:19;;;;;;;10.45;4.87;;;;;;;12.70;76.46;102510.70;1725631;82;21696;-87
2022/11/12 04:55:53;;;;;;;10.60;4.55;;;;;;;12.73;76.50;102513.91;1721819;82;21006;-87
2022/11/12 04:58:20;;;;;;;10.80;4.62;;;;;;;12.74;76.44;102514.38;1721435;82;21512;-87
2022/11/12 05:00:47;;;;;;;11.95;5.87;;;;;;;12.75;76.47;102509.59;1718930;82;20992;-87
2022/11/12 05:03:13;;;;;;;9.25;4.42;;;;;;;12.77;76.52;102503.96;1678256;82;20988;-87
2022/11/12 05:05:40;;;;;;;9.30;4.67;;;;;;;12.76;76.48;102505.70;1723300;82;21406;-87
2022/11/12 05:08:07;;;;;;;11.00;4.92;;;;;;;12.75;76.40;102514.88;1722732;82;21022;-87
2022/11/12 05:10:33;;;;;;;12.98;5.30;;;;;;;12.70;76.42;102509.80;1720940;82;21010;-87
2022/11/12 05:13:00;;;;;;;10.30;5.40;;;;;;;12.72;76.46;102516.05;1719576;82;21078;-87
2022/11/12 05:15:27;;;;;;;11.33;5.20;;;;;;;12.72;76.43;102515.63;1725600;82;21011;-87
2022/11/12 05:17:55;;;;;;;9.13;5.35;;;;;;;12.70;76.45;102519.05;1721384;81;21711;-88
2022/11/12 05:20:21;;;;;;;12.88;5.55;;;;;;;12.71;76.53;102510.30;1761235;80;21593;-87
2022/11/12 05:22:48;;;;;;;12.03;4.97;;;;;;;12.73;76.48;102512.59;1758132;80;21076;-87
2022/11/12 05:25:15;;;;;;;11.25;5.10;;;;;;;12.73;76.49;102517.87;1752969;80;21008;-87
2022/11/12 05:27:42;;;;;;;11.40;5.25;;;;;;;12.73;76.48;102524.06;1755474;80;21493;-87
2022/11/12 05:30:10;;;;;;;11.03;4.97;;;;;;;12.73;76.52;102521.41;1755802;80;21758;-87
2022/11/12 05:32:37;;;;;;;10.72;5.75;;;;;;;12.73;76.54;102514.81;1756214;80;21028;-87
2022/11/12 05:35:04;;;;;;;8.68;5.20;;;;;;;12.77;76.58;102530.38;1753950;80;21082;-87
2022/11/12 05:37:31;;;;;;;11.63;5.47;;;;;;;12.78;76.58;102530.45;1756676;80;20981;-87
2022/11/12 05:39:57;;;;;;;10.32;4.87;;;;;;;12.78;76.49;102530.45;1751004;80;21544;-87
2022/11/12 05:42:24;;;;;;;11.73;5.53;;;;;;;12.76;76.39;102529.88;1751651;80;21735;-86
2022/11/12 05:44:51;;;;;;;14.95;5.20;;;;;;;12.72;76.43;102530.59;1759248;80;21051;-86
2022/11/12 05:47:17;;;;;;;11.18;5.30;;;;;;;12.73;76.45;102537.70;1749093;80;21000;-85
2022/11/12 05:49:44;;;;;;;10.25;4.22;;;;;;;12.72;76.47;102539.84;1753847;80;20988;-86
2022/11/12 05:52:11;;;;;;;11.78;5.75;;;;;;;12.72;76.50;102537.19;1752367;80;21029;-85
2022/11/12 05:54:37;;;;;;;12.75;5.40;;;;;;;12.72;76.52;102539.41;1753947;80;21669;-86
2022/11/12 05:57:04;;;;;;;10.93;5.08;;;;;;;12.72;76.45;102542.48;1748678;80;21001;-85
2022/11/12 05:59:31;;;;;;;15.13;6.65;;;;;;;12.71;76.53;102538.94;1726157;82;21020;-87
2022/11/12 06:01:57;;;;;;;16.50;6.45;;;;;;;12.73;76.56;102540.34;1725087;82;21055;-87
2022/11/12 06:04:25;;;;;;;10.95;4.85;;;;;;;12.76;76.58;102548.37;1745982;81;21027;-87
2022/11/12 06:06:51;;;;;;;8.43;4.65;;;;;;;12.77;76.52;102550.20;1737242;81;21715;-89
2022/11/12 06:09:18;;;;;;;9.43;4.67;;;;;;;12.76;76.50;102550.62;1741395;81;21545;-86
2022/11/12 06:11:45;;;;;;;10.55;4.92;;;;;;;12.79;76.58;102548.53;1735567;81;21092;-86
2022/11/12 06:14:11;;;;;;;8.90;5.00;;;;;;;12.81;76.59;102546.42;1740952;81;20987;-86
2022/11/12 06:16:38;;;;;;;11.22;5.00;;;;;;;12.82;76.54;102550.89;1737428;81;20984;-86
2022/11/12 06:19:05;;;;;;;10.65;4.87;;;;;;;12.84;76.58;102547.00;1749457;81;21721;-85
2022/11/12 06:21:32;;;;;;;9.75;4.72;;;;;;;12.84;76.55;102562.86;1736700;81;21018;-85
2022/11/12 06:23:59;;;;;;;9.25;4.55;;;;;;;12.82;76.49;102558.82;1735809;81;21069;-85
2022/11/12 06:26:27;;;;;;;12.53;4.30;;;;;;;12.80;76.56;102556.53;1740272;81;22127;-85
2022/11/12 06:28:54;;;;;;;12.50;4.85;;;;;;;12.83;76.56;102562.36;1723276;81;21496;-87
2022/11/12 06:31:21;;;;;;;9.73;4.83;;;;;;;12.84;76.57;102567.72;1737719;81;21816;-86
2022/11/12 06:33:48;;;;;;;11.45;4.40;;;;;;;12.85;76.55;102562.00;1734786;81;21105;-86
2022/11/12 06:36:17;;;;;;;8.93;4.30;;;;;;;12.85;76.53;102563.33;1738319;81;21083;-87
2022/11/12 06:38:44;;;;;;;9.25;4.83;;;;;;;12.89;76.63;102568.34;1737038;81;21046;-87
2022/11/12 06:41:11;;;;;;;8.78;5.03;;;;;;;12.93;76.60;102577.81;1747231;81;21062;-87
2022/11/12 06:43:38;;;;;;;12.23;4.95;;;;;;;12.94;76.59;102566.38;1740995;81;21746;-87
2022/11/12 06:46:08;;;;;;;10.10;4.00;;;;;;;12.97;76.60;102574.85;1735768;81;21114;-86
2022/11/12 06:48:35;;;;;;;13.10;5.25;;;;;;;13.01;76.60;102572.44;1713304;81;21081;-84
2022/11/12 06:51:18;;;;;;;15.83;9.20;;;;;;;13.03;76.58;102572.08;1737656;81;21098;-93
2022/11/12 06:53:45;;;;;;;22.73;10.90;;;;;;;13.07;76.58;102581.48;1737087;81;21045;-88
2022/11/12 06:56:12;;;;;;;21.12;9.60;;;;;;;13.06;76.51;102584.52;1737979;81;22901;-88
2022/11/12 06:58:39;;;;;;;21.23;13.38;;;;;;;13.08;76.54;102587.23;1734087;81;22283;-88
2022/11/12 07:01:09;;;;;;;17.90;11.73;;;;;;;13.09;76.53;102583.77;1738269;81;21975;-88
2022/11/12 07:03:35;;;;;;;14.13;8.83;;;;;;;13.12;76.57;102587.84;1742417;81;20991;-87
2022/11/12 07:06:08;;;;;;;10.90;6.40;;;;;;;13.15;76.51;102593.28;1737314;81;21031;-87
2022/11/12 07:08:35;;;;;;;16.77;10.20;;;;;;;13.19;76.54;102595.22;1740935;81;22588;-87
2022/11/12 07:11:02;;;;;;;13.03;7.67;;;;;;;13.23;76.48;102590.55;1736326;81;20947;-87
2022/11/12 07:13:32;;;;;;;13.18;6.58;;;;;;;13.23;76.36;102594.52;1739044;81;21401;-87
2022/11/12 07:16:00;;;;;;;20.45;18.20;;;;;;;13.27;76.43;102594.23;1741602;81;21493;-87
2022/11/12 07:18:26;;;;;;;19.60;12.05;;;;;;;13.32;76.41;102584.80;1732682;81;21026;-87
2022/11/12 07:21:02;;;;;;;15.08;10.30;;;;;;;13.35;76.33;102589.80;1743531;81;21789;-87
2022/11/12 07:23:30;;;;;;;16.15;11.08;;;;;;;13.43;76.30;102595.42;1713396;81;21042;-86
2022/11/12 07:26:04;;;;;;;19.77;12.15;;;;;;;13.48;76.23;102597.84;1739493;81;20987;-86
2022/11/12 07:28:31;;;;;;;12.45;6.47;;;;;;;13.52;76.24;102593.59;1731144;81;21794;-86
2022/11/12 07:30:59;;;;;;;14.73;4.97;;;;;;;13.55;76.08;102605.61;1740829;81;21003;-86
2022/11/12 07:33:26;;;;;;;22.00;14.85;;;;;;;13.58;76.00;102612.37;1740203;81;22596;-86
2022/11/12 07:36:00;;;;;;;8.73;4.40;;;;;;;13.60;75.94;102603.64;1745264;81;21555;-87
2022/11/12 07:38:28;;;;;;;12.15;5.42;;;;;;;13.64;75.83;102609.08;1733030;81;21091;-86
2022/11/12 07:41:11;;;;;;;9.80;4.17;;;;;;;13.66;75.77;102606.97;1743064;81;20971;-87
2022/11/12 07:43:38;;;;;;;9.88;3.95;;;;;;;13.71;75.73;102625.70;1738946;81;21069;-85
2022/11/12 07:46:12;;;;;;;11.75;6.00;;;;;;;13.73;75.59;102643.87;1735764;81;21725;-85
2022/11/12 07:48:39;;;;;;;19.85;10.20;;;;;;;13.75;75.49;102639.11;1729258;81;21412;-85
2022/11/12 07:51:26;;;;;;;6.70;4.03;;;;;;;13.79;75.54;102632.20;1737118;81;20995;-85
2022/11/12 07:53:53;;;;;;;7.37;4.05;;;;;;;13.84;75.51;102649.20;1738967;81;21066;-86
2022/11/12 07:56:22;;;;;;;8.65;3.62;;;;;;;13.87;75.25;102641.79;1743550;81;20999;-83
2022/11/12 07:58:49;;;;;;;9.93;3.77;;;;;;;13.84;75.19;102618.75;1730529;81;22672;-84
2022/11/12 08:01:36;;;;;;;5.75;3.08;;;;;;;13.89;75.24;102658.23;1745208;81;21003;-85
2022/11/12 08:04:06;;;;;;;23.50;14.75;;;;;;;13.93;75.20;102647.36;1729964;81;21068;-85
2022/11/12 08:06:33;;;;;;;10.48;4.65;;;;;;;13.96;75.16;102639.13;1742355;81;21016;-85
2022/11/12 08:09:01;;;;;;;11.45;4.97;;;;;;;14.03;75.05;102653.94;1740642;81;21564;-86
2022/11/12 08:11:28;;;;;;;11.05;3.85;;;;;;;14.05;74.97;102631.06;1731018;81;21729;-85
2022/11/12 08:14:06;;;;;;;9.53;4.08;;;;;;;14.07;74.73;102637.33;1729305;81;21011;-88
2022/11/12 08:16:45;;;;;;;18.70;11.78;;;;;;;14.07;74.79;102648.81;1726545;81;21019;-88
2022/11/12 08:19:12;;;;;;;20.80;12.58;;;;;;;14.12;74.89;102632.70;1735471;81;20975;-85
2022/11/12 08:21:39;;;;;;;13.58;5.28;;;;;;;14.21;74.87;102642.78;1731631;81;21464;-86
2022/11/12 08:24:07;;;;;;;19.23;12.53;;;;;;;14.28;74.75;102643.48;1726184;81;22073;-86
2022/11/12 08:26:33;;;;;;;16.20;9.93;;;;;;;14.34;74.74;102645.07;1730618;81;21800;-84
2022/11/12 08:29:00;;;;;;;9.68;5.28;;;;;;;14.42;74.64;102648.02;1733644;81;21011;-85
2022/11/12 08:31:27;;;;;;;66.00;37.33;;;;;;;14.48;74.51;102655.31;1741293;81;21639;-85
2022/11/12 08:33:53;;;;;;;15.58;7.22;;;;;;;14.52;74.42;102655.91;1734670;81;21050;-85
2022/11/12 08:36:21;;;;;;;9.90;4.92;;;;;;;14.56;74.32;102649.88;1730678;81;23291;-86
2022/11/12 08:38:55;;;;;;;9.00;4.95;;;;;;;14.61;74.27;102659.38;1729913;81;20968;-85
2022/11/12 08:41:21;;;;;;;13.78;3.92;;;;;;;14.64;74.11;102655.11;1734243;81;21102;-83
2022/11/12 08:43:48;;;;;;;12.30;6.70;;;;;;;14.67;74.05;102662.26;1736012;81;21417;-84
2022/11/12 08:46:15;;;;;;;7.85;3.27;;;;;;;14.69;73.92;102661.47;1735544;81;21830;-84
2022/11/12 08:48:41;;;;;;;13.03;6.25;;;;;;;14.72;73.92;102660.27;1739013;81;21951;-85
2022/11/12 08:51:08;;;;;;;6.55;2.95;;;;;;;14.78;73.88;102659.59;1745758;81;20963;-85
2022/11/12 08:53:35;;;;;;;8.75;2.98;;;;;;;14.81;73.76;102659.73;1735760;81;21409;-85
2022/11/12 08:56:01;;;;;;;12.53;4.85;;;;;;;14.86;73.75;102645.31;1737139;81;21022;-85
2022/11/12 08:58:28;;;;;;;8.15;4.30;;;;;;;14.94;73.75;102655.37;1733234;81;21006;-85
2022/11/12 09:00:55;;;;;;;8.58;3.83;;;;;;;15.00;73.64;102638.78;1736193;81;21736;-85
2022/11/12 09:03:24;;;;;;;8.80;4.47;;;;;;;15.06;73.53;102645.62;1737625;81;21000;-85
2022/11/12 09:05:51;;;;;;;7.12;3.45;;;;;;;15.13;73.59;102636.16;1738682;81;21898;-85
2022/11/12 09:08:20;;;;;;;9.25;4.10;;;;;;;15.23;73.39;102642.27;1733372;81;21476;-85
2022/11/12 09:10:47;;;;;;;15.88;6.12;;;;;;;15.28;73.24;102645.99;1713066;81;21050;-85
2022/11/12 09:13:14;;;;;;;13.90;9.03;;;;;;;15.34;73.14;102645.31;1735810;81;21739;-85
2022/11/12 09:15:40;;;;;;;11.57;4.35;;;;;;;15.40;73.11;102640.21;1744976;81;21778;-85
2022/11/12 09:18:11;;;;;;;8.78;4.28;;;;;;;15.47;72.99;102656.84;1732308;81;20983;-85
2022/11/12 09:20:37;;;;;;;11.30;4.30;;;;;;;15.53;72.93;102656.15;1703796;82;21923;-85
2022/11/12 09:23:08;;;;;;;8.73;3.80;;;;;;;15.59;72.74;102664.31;1718827;83;21010;-85
2022/11/12 09:25:35;;;;;;;9.45;3.85;;;;;;;15.64;72.67;102668.48;1719667;81;21692;-85
2022/11/12 09:28:14;;;;;;;10.70;3.58;;;;;;;15.62;72.23;102667.52;1703058;82;21003;-85
2022/11/12 09:30:48;;;;;;;11.25;3.90;;;;;;;15.49;71.87;102675.04;1703646;83;21066;-85
2022/11/12 09:33:16;;;;;;;10.03;4.05;;;;;;;15.43;72.10;102676.56;1717713;82;21849;-84
2022/11/12 09:35:44;;;;;;;9.80;4.60;;;;;;;15.37;72.01;102671.94;1697364;83;20919;-85
2022/11/12 09:38:11;;;;;;;11.70;4.42;;;;;;;15.36;72.05;102679.00;1717790;83;22469;-85
2022/11/12 09:41:10;;;;;;;12.20;3.98;;;;;;;15.28;71.86;102677.83;1719022;83;20918;-85
2022/11/12 09:43:52;;;;;;;7.83;3.47;;;;;;;15.22;71.88;102678.02;1703317;82;21029;-84
2022/11/12 09:47:01;;;;;;;8.95;4.17;;;;;;;15.15;72.04;102670.27;1705819;83;20995;-85
2022/11/12 09:49:34;;;;;;;14.03;5.50;;;;;;;15.15;71.95;102672.92;1704675;83;21062;-85
2022/11/12 09:52:04;;;;;;;14.93;8.35;;;;;;;15.12;72.26;102670.15;1701217;82;21857;-85
2022/11/12 09:54:32;;;;;;;9.50;4.50;;;;;;;15.18;72.28;102673.45;1705695;83;21581;-85
2022/11/12 09:56:58;;;;;;;12.40;4.50;;;;;;;15.22;72.32;102673.64;1707790;82;21058;-85
2022/11/12 09:59:31;;;;;;;9.25;5.05;;;;;;;15.27;72.26;102683.08;1706949;83;21448;-85
2022/11/12 10:02:03;;;;;;;13.80;6.37;;;;;;;15.27;72.21;102673.79;1703523;83;22019;-85
2022/11/12 10:04:37;;;;;;;10.75;4.33;;;;;;;15.29;72.27;102674.75;1702899;82;21741;-85
2022/11/12 10:07:29;;;;;;;12.53;4.10;;;;;;;15.29;72.20;102670.33;1704670;83;21027;-85
2022/11/12 10:10:06;;;;;;;10.43;4.10;;;;;;;15.30;72.09;102684.09;1702486;82;21022;-87
2022/11/12 10:12:59;;;;;;;10.20;4.20;;;;;;;15.24;71.99;102686.53;1704079;82;21090;-86
2022/11/12 10:19:02;;;;;;;11.70;5.05;;;;;;;15.22;72.15;102681.99;1694966;82;21723;-86
2022/11/12 10:21:59;;;;;;;8.50;4.15;;;;;;;15.23;72.14;102687.80;1739092;81;21022;-86
2022/11/12 10:24:27;;;;;;;8.85;4.58;;;;;;;15.21;72.13;102693.47;1744698;81;20979;-86
2022/11/12 10:26:56;;;;;;;12.47;4.22;;;;;;;15.22;72.15;102700.56;1751396;80;20996;-86
2022/11/12 10:29:55;;;;;;;15.55;6.78;;;;;;;15.18;72.12;102697.33;1708217;80;22331;-85
2022/11/12 10:32:21;;;;;;;19.52;9.10;;;;;;;15.16;72.17;102699.91;1748968;80;21817;-84
2022/11/12 10:34:48;;;;;;;11.78;5.45;;;;;;;15.06;72.09;102697.34;1751704;80;21893;-84
2022/11/12 10:37:22;;;;;;;16.93;5.62;;;;;;;15.03;72.25;102700.30;1758023;80;21063;-84
2022/11/12 10:39:49;;;;;;;13.68;5.28;;;;;;;14.97;72.10;102699.22;1760732;80;21080;-84
2022/11/12 10:42:18;;;;;;;9.98;5.30;;;;;;;14.89;72.28;102694.05;1768570;80;21060;-84
2022/11/12 10:44:45;;;;;;;13.98;5.42;;;;;;;14.87;72.42;102694.86;1755336;80;21723;-85
2022/11/12 10:47:25;;;;;;;12.00;5.37;;;;;;;14.87;72.54;102698.83;1722448;80;21033;-85
2022/11/12 10:50:09;;;;;;;9.95;4.87;;;;;;;14.83;72.57;102701.78;1723228;80;21025;-84
2022/11/12 10:52:36;;;;;;;9.65;4.97;;;;;;;14.81;72.63;102700.83;1757704;80;21026;-84
2022/11/12 10:55:15;;;;;;;11.53;5.15;;;;;;;14.75;72.59;102700.16;1751987;80;21052;-85
2022/11/12 10:57:42;;;;;;;12.03;5.35;;;;;;;14.72;72.81;102699.14;1760489;80;21735;-85
2022/11/12 11:00:17;;;;;;;12.73;6.62;;;;;;;14.73;72.97;102696.95;1754237;80;21021;-85
2022/11/12 11:02:52;;;;;;;13.98;6.25;;;;;;;14.76;73.05;102695.75;1757223;80;20974;-85
2022/11/12 11:05:49;;;;;;;15.93;5.85;;;;;;;14.77;72.99;102690.52;1759217;80;21389;-87
2022/11/12 11:08:35;;;;;;;10.98;5.28;;;;;;;14.65;73.00;102675.45;1719943;80;21022;-85
2022/11/12 11:11:25;;;;;;;13.93;5.08;;;;;;;14.74;73.17;102697.45;1763603;80;21904;-84
2022/11/12 11:13:54;;;;;;;12.68;4.90;;;;;;;14.75;73.14;102689.95;1734517;80;20994;-84
2022/11/12 11:16:26;;;;;;;11.48;5.05;;;;;;;14.73;73.27;102696.95;1750067;80;21049;-84
2022/11/12 11:19:01;;;;;;;12.68;6.85;;;;;;;14.75;73.38;102692.61;1731228;80;21506;-84
2022/11/12 11:21:51;;;;;;;11.50;5.75;;;;;;;14.77;73.36;102692.24;1762058;80;21038;-85
2022/11/12 11:24:45;;;;;;;10.45;6.40;;;;;;;14.79;73.42;102694.56;1751143;80;21519;-85
2022/11/12 11:27:26;;;;;;;12.53;6.25;;;;;;;14.83;73.45;102692.90;1762589;80;21052;-84
2022/11/12 11:30:11;;;;;;;11.85;6.12;;;;;;;14.80;73.40;102685.74;1752208;80;21012;-86
2022/11/12 11:33:05;;;;;;;11.12;6.35;;;;;;;14.79;73.58;102679.98;1756599;80;21067;-85
2022/11/12 11:35:45;;;;;;;15.70;5.60;;;;;;;14.82;73.69;102687.13;1751996;80;21044;-84
2022/11/12 11:38:46;;;;;;;12.78;5.70;;;;;;;14.84;73.73;102680.14;1757250;80;23136;-84
2022/11/12 11:41:45;;;;;;;11.65;5.30;;;;;;;14.84;73.76;102673.08;1756656;80;21494;-84
2022/11/12 11:44:41;;;;;;;13.30;6.42;;;;;;;14.89;73.83;102671.52;1752133;80;21556;-84
2022/11/12 11:47:43;;;;;;;9.35;5.67;;;;;;;14.89;73.75;102675.50;1751778;80;21028;-84
2022/11/12 11:50:18;;;;;;;12.20;6.47;;;;;;;14.87;73.74;102674.97;1756220;80;21021;-84
2022/11/12 11:52:49;;;;;;;8.38;5.17;;;;;;;14.86;73.83;102676.69;1752797;80;21717;-85
2022/11/12 11:55:36;;;;;;;11.00;5.50;;;;;;;14.82;73.86;102676.53;1767249;80;21001;-84
2022/11/12 11:58:39;;;;;;;8.50;5.15;;;;;;;14.83;74.04;102673.02;1752503;80;20981;-84
2022/11/12 12:01:26;;;;;;;13.22;5.33;;;;;;;14.82;74.02;102676.09;1752161;80;21103;-84
2022/11/12 12:04:11;;;;;;;12.18;5.08;;;;;;;14.79;74.03;102674.67;1754605;80;21060;-84